createdAt,value
2019-04-04T00:00:09.919Z,41.80
2019-04-04T00:03:02.480Z,42.00
2019-04-04T00:05:56.519Z,42.00
2019-04-04T00:08:48.922Z,42.00
2019-04-04T00:11:41.179Z,42.00
2019-04-04T00:14:34.230Z,42.70
2019-04-04T00:17:27.173Z,42.30
2019-04-04T00:20:19.895Z,42.10
2019-04-04T00:23:12.635Z,42.10
2019-04-04T00:26:06.010Z,42.10
2019-04-04T00:29:01.244Z,42.20
2019-04-04T00:31:53.358Z,42.10
2019-04-04T00:34:46.201Z,42.10
2019-04-04T00:37:40.982Z,42.20
2019-04-04T00:40:32.856Z,42.10
2019-04-04T00:43:25.783Z,41.90
2019-04-04T00:46:19.000Z,41.80
2019-04-04T00:49:12.799Z,41.80
2019-04-04T00:52:05.794Z,41.70
2019-04-04T00:54:58.098Z,41.90
2019-04-04T00:57:50.967Z,41.90
2019-04-04T01:00:43.544Z,41.80
2019-04-04T01:03:36.001Z,41.80
2019-04-04T01:06:28.197Z,41.80
2019-04-04T01:09:21.305Z,41.70
2019-04-04T01:12:14.202Z,41.80
2019-04-04T01:15:08.175Z,41.90
2019-04-04T01:18:01.347Z,41.80
2019-04-04T01:20:54.545Z,41.80
2019-04-04T01:23:48.448Z,41.90
2019-04-04T01:26:42.397Z,41.90
2019-04-04T01:29:36.873Z,41.80
2019-04-04T01:32:32.282Z,42.10
2019-04-04T01:35:25.415Z,41.80
2019-04-04T01:38:19.815Z,41.90
2019-04-04T01:41:14.688Z,41.90
2019-04-04T01:44:10.836Z,41.80
2019-04-04T01:47:05.147Z,41.80
2019-04-04T01:49:59.757Z,41.70
2019-04-04T01:52:53.573Z,41.80
2019-04-04T01:55:47.234Z,41.70
2019-04-04T01:58:41.859Z,41.70
2019-04-04T02:01:34.481Z,41.60
2019-04-04T02:04:27.821Z,41.50
2019-04-04T02:07:21.164Z,41.70
2019-04-04T02:10:14.388Z,41.80
2019-04-04T02:13:09.873Z,42.00
2019-04-04T02:16:02.840Z,41.80
2019-04-04T02:18:56.115Z,41.80
2019-04-04T02:21:48.965Z,42.30
2019-04-04T02:24:41.857Z,41.90
2019-04-04T02:27:37.642Z,41.90
2019-04-04T02:30:29.448Z,42.00
2019-04-04T02:33:22.236Z,41.90
2019-04-04T02:36:16.735Z,41.90
2019-04-04T02:39:14.053Z,41.90
2019-04-04T02:42:06.332Z,41.90
2019-04-04T02:44:59.700Z,42.00
2019-04-04T02:47:52.622Z,42.50
2019-04-04T02:50:45.484Z,42.60
2019-04-04T02:53:38.198Z,42.10
2019-04-04T02:56:34.935Z,42.30
2019-04-04T02:59:24.728Z,42.60
2019-04-04T03:02:18.900Z,42.70
2019-04-04T03:05:19.264Z,42.80
2019-04-04T03:08:11.734Z,42.80
2019-04-04T03:11:04.688Z,42.90
2019-04-04T03:14:03.299Z,42.90
2019-04-04T03:16:56.804Z,42.90
2019-04-04T03:19:50.489Z,42.90
2019-04-04T03:22:45.185Z,43.00
2019-04-04T03:25:38.553Z,43.20
2019-04-04T03:28:32.352Z,43.30
2019-04-04T03:31:25.324Z,43.10
2019-04-04T03:34:18.955Z,43.30
2019-04-04T03:37:12.906Z,43.10
2019-04-04T03:40:05.465Z,43.20
2019-04-04T03:42:59.376Z,43.30
2019-04-04T03:45:54.016Z,43.20
2019-04-04T03:48:51.089Z,43.20
2019-04-04T03:51:45.881Z,43.40
2019-04-04T03:54:39.955Z,43.40
2019-04-04T03:57:33.420Z,43.60
2019-04-04T04:00:31.271Z,43.60
2019-04-04T04:03:24.728Z,43.50
2019-04-04T04:06:18.479Z,43.60
2019-04-04T04:09:11.768Z,43.60
2019-04-04T04:12:04.138Z,43.50
2019-04-04T04:14:56.665Z,43.60
2019-04-04T04:17:49.844Z,43.60
2019-04-04T04:20:44.726Z,43.80
2019-04-04T04:23:39.078Z,43.90
2019-04-04T04:26:32.057Z,44.40
2019-04-04T04:29:29.582Z,45.60
2019-04-04T04:32:23.652Z,45.70
2019-04-04T04:35:16.478Z,45.60
2019-04-04T04:38:11.894Z,48.00
2019-04-04T04:41:05.898Z,48.20
2019-04-04T04:44:07.671Z,48.50
2019-04-04T04:47:02.747Z,49.00
2019-04-04T04:49:55.629Z,49.40
2019-04-04T04:52:51.574Z,49.80
2019-04-04T04:55:51.040Z,50.20
2019-04-04T04:58:43.078Z,50.50
2019-04-04T05:01:44.683Z,50.50
2019-04-04T05:04:48.328Z,50.40
2019-04-04T05:11:05.153Z,50.40
2019-04-04T05:14:03.797Z,49.90
2019-04-04T05:16:58.729Z,49.60
2019-04-04T05:19:54.454Z,49.40
2019-04-04T05:22:50.444Z,49.30
2019-04-04T05:25:54.013Z,49.00
2019-04-04T05:28:46.633Z,48.90
2019-04-04T05:31:39.888Z,48.90
2019-04-04T05:35:09.920Z,48.80
2019-04-04T05:38:14.675Z,48.80
2019-04-04T05:42:01.160Z,48.80
2019-04-04T05:44:22.825Z,48.80
2019-04-04T05:47:17.734Z,48.80
2019-04-04T05:50:19.621Z,48.70
2019-04-04T05:53:14.320Z,48.70
2019-04-04T05:59:38.374Z,48.60
2019-04-04T06:02:34.513Z,48.50
2019-04-04T06:05:40.987Z,48.60
2019-04-04T06:08:38.815Z,48.50
2019-04-04T06:11:38.438Z,48.40
2019-04-04T06:14:38.243Z,48.30
2019-04-04T06:17:32.827Z,48.20
2019-04-04T06:20:42.607Z,48.20
2019-04-04T06:23:37.992Z,48.20
2019-04-04T06:26:38.017Z,48.10
2019-04-04T06:29:32.196Z,48.00
2019-04-04T06:32:29.070Z,47.90
2019-04-04T06:35:28.074Z,47.80
2019-04-04T06:38:42.658Z,47.70
2019-04-04T06:45:18.803Z,47.60
2019-04-04T06:48:20.094Z,47.60
2019-04-04T06:51:18.679Z,47.50
2019-04-04T06:54:18.932Z,47.50
2019-04-04T06:57:21.144Z,47.40
2019-04-04T07:00:24.254Z,47.30
2019-04-04T07:03:17.771Z,47.30
2019-04-04T07:06:11.454Z,47.30
2019-04-04T07:09:07.295Z,47.20
2019-04-04T07:12:01.528Z,47.20
2019-04-04T07:14:57.547Z,47.10
2019-04-04T07:17:52.596Z,47.00
2019-04-04T07:20:48.223Z,46.90
2019-04-04T07:23:43.759Z,46.90
2019-04-04T07:26:45.506Z,46.80
2019-04-04T07:29:39.122Z,46.70
2019-04-04T07:32:31.958Z,46.60
2019-04-04T07:35:27.992Z,46.50
2019-04-04T07:38:34.918Z,46.50
2019-04-04T07:41:29.482Z,46.40
2019-04-04T07:44:43.892Z,46.50
2019-04-04T07:47:39.304Z,46.30
2019-04-04T07:50:40.767Z,46.30
2019-04-04T07:54:02.350Z,46.20
2019-04-04T07:57:01.327Z,46.10
2019-04-04T08:00:04.096Z,46.10
2019-04-04T08:03:03.252Z,45.90
2019-04-04T08:05:57.197Z,45.80
2019-04-04T08:08:55.684Z,45.60
2019-04-04T08:11:59.757Z,45.50
2019-04-04T08:18:28.459Z,45.60
2019-04-04T08:32:16.421Z,47.40
2019-04-04T08:35:12.541Z,47.40
2019-04-04T08:38:09.747Z,47.10
2019-04-04T08:41:06.021Z,46.90
2019-04-04T08:44:06.872Z,46.70
2019-04-04T08:47:03.489Z,46.80
2019-04-04T08:50:01.093Z,46.80
2019-04-04T08:52:54.660Z,46.90
2019-04-04T08:55:49.634Z,46.80
2019-04-04T08:58:43.601Z,46.50
2019-04-04T09:01:41.570Z,46.50
2019-04-04T09:04:39.661Z,46.50
2019-04-04T09:07:51.877Z,46.60
2019-04-04T09:14:33.981Z,46.60
2019-04-04T09:17:35.068Z,46.60
2019-04-04T09:20:39.987Z,46.70
2019-04-04T09:23:54.734Z,46.60
2019-04-04T09:26:56.790Z,46.50
2019-04-04T09:29:55.901Z,46.40
2019-04-04T09:32:56.837Z,46.40
2019-04-04T09:35:59.155Z,46.40
2019-04-04T09:39:03.056Z,46.30
2019-04-04T09:42:16.915Z,46.50
2019-04-04T09:45:16.707Z,46.60
2019-04-04T09:48:15.352Z,46.70
2019-04-04T09:51:25.776Z,46.90
2019-04-04T09:54:52.226Z,47.00
2019-04-04T10:01:46.227Z,47.10
2019-04-04T10:04:51.928Z,47.10
2019-04-04T10:07:57.561Z,47.10
2019-04-04T10:10:59.268Z,47.20
2019-04-04T10:13:53.726Z,47.40
2019-04-04T10:16:49.015Z,47.30
2019-04-04T10:19:46.445Z,47.10
2019-04-04T10:23:13.131Z,46.90
2019-04-04T10:29:48.842Z,46.60
2019-04-04T10:32:41.388Z,46.20
2019-04-04T10:35:44.882Z,46.00
2019-04-04T10:38:30.360Z,45.80
2019-04-04T10:41:22.874Z,45.80
2019-04-04T10:44:21.321Z,45.70
2019-04-04T10:47:22.279Z,45.40
2019-04-04T10:50:16.787Z,44.90
2019-04-04T10:53:10.041Z,44.90
2019-04-04T10:56:05.659Z,44.80
2019-04-04T10:59:01.635Z,44.80
2019-04-04T11:02:03.166Z,44.70
2019-04-04T11:08:57.804Z,44.80
2019-04-04T11:11:52.278Z,44.80
2019-04-04T11:14:46.766Z,44.80
2019-04-04T11:17:48.574Z,44.90
2019-04-04T11:20:42.764Z,45.00
2019-04-04T11:24:10.595Z,45.00
2019-04-04T11:27:00.199Z,44.80
2019-04-04T11:30:02.084Z,44.70
2019-04-04T11:33:06.847Z,44.70
2019-04-04T11:35:59.554Z,44.70
2019-04-04T11:38:54.000Z,44.70
2019-04-04T11:41:56.263Z,44.70
2019-04-04T11:44:56.396Z,44.70
2019-04-04T11:47:50.149Z,44.60
2019-04-04T11:50:48.608Z,44.60
2019-04-04T11:53:48.092Z,44.60
2019-04-04T11:56:56.487Z,44.40
2019-04-04T11:59:51.804Z,44.20
2019-04-04T12:02:50.054Z,43.90
2019-04-04T12:05:44.729Z,43.80
2019-04-04T12:08:37.785Z,43.60
2019-04-04T12:11:34.549Z,43.60
2019-04-04T12:14:38.106Z,43.60
2019-04-04T12:17:32.492Z,43.60
2019-04-04T12:20:27.885Z,43.60
2019-04-04T12:23:20.690Z,43.60
2019-04-04T12:26:13.513Z,43.60
2019-04-04T12:29:06.295Z,43.50
2019-04-04T12:31:59.569Z,43.40
2019-04-04T12:34:54.890Z,43.30
2019-04-04T12:37:51.891Z,43.10
2019-04-04T12:40:46.062Z,43.00
2019-04-04T12:43:53.394Z,43.00
2019-04-04T12:46:46.936Z,42.80
2019-04-04T12:49:40.025Z,42.50
2019-04-04T12:52:33.360Z,42.50
2019-04-04T12:55:28.438Z,42.00
2019-04-04T12:58:22.391Z,42.20
2019-04-04T13:01:18.043Z,42.00
2019-04-04T13:04:11.316Z,41.60
2019-04-04T13:07:05.815Z,41.50
2019-04-04T13:10:10.930Z,41.50
2019-04-04T13:12:58.391Z,41.40
2019-04-04T13:15:54.455Z,41.30
2019-04-04T13:18:47.288Z,41.20
2019-04-04T13:21:42.293Z,40.70
2019-04-04T13:24:37.358Z,40.60
2019-04-04T13:27:29.916Z,40.40
2019-04-04T13:30:32.480Z,40.20
2019-04-04T13:33:26.873Z,39.90
2019-04-04T13:36:20.462Z,39.70
2019-04-04T13:39:13.721Z,39.50
2019-04-04T13:42:07.374Z,39.50
2019-04-04T13:45:00.138Z,39.40
2019-04-04T13:47:54.627Z,39.30
2019-04-04T13:50:47.120Z,39.20
2019-04-04T13:53:41.397Z,39.20
2019-04-04T13:56:37.958Z,39.00
2019-04-04T13:59:30.602Z,39.10
2019-04-04T14:02:24.631Z,39.10
2019-04-04T14:05:17.305Z,39.10
2019-04-04T14:08:18.232Z,39.20
2019-04-04T14:11:16.792Z,39.10
2019-04-04T14:14:11.673Z,39.10
2019-04-04T14:17:05.111Z,39.30
2019-04-04T14:19:58.023Z,39.40
2019-04-04T14:22:51.960Z,39.50
2019-04-04T14:25:46.799Z,39.70
2019-04-04T14:28:39.758Z,39.90
2019-04-04T14:31:32.318Z,39.90
2019-04-04T14:34:28.405Z,40.10
2019-04-04T14:37:23.825Z,40.20
2019-04-04T14:40:17.995Z,40.40
2019-04-04T14:43:15.987Z,40.50
2019-04-04T14:46:12.145Z,40.50
2019-04-04T14:49:12.349Z,40.50
2019-04-04T14:52:04.465Z,40.60
2019-04-04T14:55:04.312Z,40.60
2019-04-04T14:57:57.824Z,40.70
2019-04-04T15:00:52.785Z,40.80
2019-04-04T15:03:45.925Z,40.80
2019-04-04T15:06:40.182Z,40.90
2019-04-04T15:09:34.566Z,40.90
2019-04-04T15:12:42.298Z,41.00
2019-04-04T15:15:38.024Z,41.00
2019-04-04T15:18:45.400Z,41.10
2019-04-04T15:21:47.467Z,41.20
2019-04-04T15:24:40.644Z,41.20
2019-04-04T15:27:37.254Z,41.30
2019-04-04T15:30:34.657Z,41.30
2019-04-04T15:33:29.288Z,41.30
2019-04-04T15:36:24.610Z,41.30
2019-04-04T15:39:19.549Z,41.40
2019-04-04T15:42:21.491Z,41.60
2019-04-04T15:45:18.661Z,40.50
2019-04-04T15:48:14.879Z,40.40
2019-04-04T15:51:07.839Z,40.00
2019-04-04T15:54:00.483Z,39.60
2019-04-04T15:56:53.299Z,39.30
2019-04-04T15:59:46.904Z,39.10
2019-04-04T16:02:41.237Z,38.90
2019-04-04T16:05:34.439Z,38.70
2019-04-04T16:08:28.901Z,38.60
2019-04-04T16:11:22.329Z,38.30
2019-04-04T16:14:15.764Z,38.20
2019-04-04T16:17:08.383Z,38.10
2019-04-04T16:20:02.558Z,37.90
2019-04-04T16:22:55.111Z,37.70
2019-04-04T16:25:48.486Z,37.80
2019-04-04T16:28:41.283Z,37.80
2019-04-04T16:31:34.543Z,37.40
2019-04-04T16:34:26.757Z,37.70
2019-04-04T16:37:20.247Z,37.40
2019-04-04T16:40:13.681Z,37.40
2019-04-04T16:43:07.106Z,37.50
2019-04-04T16:46:00.219Z,37.40
2019-04-04T16:48:53.339Z,37.50
2019-04-04T16:51:46.454Z,37.40
2019-04-04T16:54:40.298Z,37.40
2019-04-04T16:57:33.751Z,37.30
2019-04-04T17:00:28.323Z,37.40
2019-04-04T17:03:21.622Z,37.40
2019-04-04T17:06:15.514Z,37.40
2019-04-04T17:09:10.611Z,37.30
2019-04-04T17:12:14.417Z,37.50
2019-04-04T17:14:59.150Z,37.30
2019-04-04T17:17:51.955Z,37.40
2019-04-04T17:20:45.036Z,37.40
2019-04-04T17:23:37.691Z,37.40
2019-04-04T17:26:29.932Z,38.20
2019-04-04T17:29:22.588Z,37.60
2019-04-04T17:32:15.105Z,38.10
2019-04-04T17:35:08.584Z,37.50
2019-04-04T17:38:01.662Z,37.40
2019-04-04T17:40:55.054Z,37.70
2019-04-04T17:43:49.512Z,37.60
2019-04-04T17:46:42.307Z,37.50
2019-04-04T17:49:34.628Z,37.30
2019-04-04T17:52:27.019Z,37.30
2019-04-04T17:55:23.207Z,37.60
2019-04-04T17:58:16.029Z,37.40
2019-04-04T18:01:09.977Z,37.50
2019-04-04T18:04:02.331Z,37.70
2019-04-04T18:06:55.822Z,37.50
2019-04-04T18:09:48.085Z,37.60
2019-04-04T18:12:41.002Z,37.60
2019-04-04T18:15:33.549Z,37.60
2019-04-04T18:18:26.560Z,37.60
2019-04-04T18:21:19.127Z,37.30
2019-04-04T18:24:13.356Z,37.50
2019-04-04T18:27:06.176Z,37.50
2019-04-04T18:29:58.839Z,37.60
2019-04-04T18:32:51.550Z,37.50
2019-04-04T18:35:44.126Z,37.60
2019-04-04T18:38:37.688Z,37.40
2019-04-04T18:41:30.033Z,37.40
2019-04-04T18:44:22.619Z,37.70
2019-04-04T18:47:19.997Z,37.40
2019-04-04T18:50:14.714Z,37.60
2019-04-04T18:53:14.809Z,37.60
2019-04-04T18:56:08.150Z,37.60
2019-04-04T18:59:01.009Z,37.70
2019-04-04T19:01:54.961Z,37.80
2019-04-04T19:04:47.770Z,37.90
2019-04-04T19:07:40.891Z,37.90
2019-04-04T19:10:34.365Z,37.80
2019-04-04T19:13:26.873Z,37.90
2019-04-04T19:16:19.098Z,37.70
2019-04-04T19:19:11.888Z,37.80
2019-04-04T19:22:04.124Z,38.10
2019-04-04T19:24:56.823Z,38.10
2019-04-04T19:27:49.331Z,38.30
2019-04-04T19:30:43.155Z,38.20
2019-04-04T19:33:36.539Z,38.20
2019-04-04T19:36:29.721Z,38.30
2019-04-04T19:39:24.235Z,38.30
2019-04-04T19:42:18.903Z,38.40
2019-04-04T19:45:14.123Z,38.30
2019-04-04T19:48:09.011Z,38.60
2019-04-04T19:51:02.237Z,38.40
2019-04-04T19:53:56.065Z,38.20
2019-04-04T19:56:54.192Z,38.30
2019-04-04T19:59:48.921Z,38.10
2019-04-04T20:02:44.085Z,38.00
2019-04-04T20:05:36.638Z,38.10
2019-04-04T20:08:28.597Z,38.20
2019-04-04T20:11:21.046Z,38.10
2019-04-04T20:14:14.532Z,38.20
2019-04-04T20:17:06.953Z,38.30
2019-04-04T20:20:00.638Z,38.30
2019-04-04T20:22:53.129Z,38.20
2019-04-04T20:25:46.656Z,38.30
2019-04-04T20:28:40.194Z,38.20
2019-04-04T20:31:32.813Z,38.10
2019-04-04T20:34:25.145Z,38.10
2019-04-04T20:37:17.221Z,38.30
2019-04-04T20:40:09.707Z,38.20
2019-04-04T20:43:02.199Z,38.20
2019-04-04T20:45:56.649Z,38.20
2019-04-04T20:48:48.359Z,38.20
2019-04-04T20:51:41.802Z,38.30
2019-04-04T20:54:37.113Z,38.10
2019-04-04T20:57:29.241Z,38.10
2019-04-04T21:00:21.646Z,38.10
2019-04-04T21:03:14.013Z,38.20
2019-04-04T21:06:06.153Z,38.00
2019-04-04T21:08:58.269Z,38.00
2019-04-04T21:11:50.608Z,38.10
2019-04-04T21:14:43.259Z,38.20
2019-04-04T21:17:35.815Z,38.10
2019-04-04T21:20:28.202Z,38.20
2019-04-04T21:23:20.682Z,38.20
2019-04-04T21:26:13.062Z,38.30
2019-04-04T21:29:06.475Z,38.80
2019-04-04T21:31:58.874Z,38.40
2019-04-04T21:34:51.183Z,38.30
2019-04-04T21:37:43.597Z,38.30
2019-04-04T21:40:36.010Z,38.30
2019-04-04T21:43:28.037Z,38.40
2019-04-04T21:46:20.377Z,38.40
2019-04-04T21:49:12.712Z,38.20
2019-04-04T21:52:04.870Z,38.10
2019-04-04T21:54:56.857Z,38.20
2019-04-04T21:57:49.152Z,38.20
2019-04-04T22:00:46.436Z,38.30
2019-04-04T22:03:39.087Z,38.40
2019-04-04T22:06:31.378Z,38.30
2019-04-04T22:09:24.686Z,38.30
2019-04-04T22:12:17.067Z,38.10
2019-04-04T22:15:12.111Z,38.40
2019-04-04T22:18:03.297Z,38.30
2019-04-04T22:20:55.499Z,38.50
2019-04-04T22:23:47.770Z,38.50
2019-04-04T22:26:40.991Z,38.50
2019-04-04T22:29:33.427Z,38.70
2019-04-04T22:32:25.833Z,38.60
2019-04-04T22:35:18.269Z,38.50
2019-04-04T22:38:10.621Z,38.80
2019-04-04T22:41:03.018Z,38.70
2019-04-04T22:44:03.367Z,38.30
2019-04-04T22:46:48.751Z,37.90
2019-04-04T22:49:43.096Z,37.70
2019-04-04T22:52:35.805Z,37.90
2019-04-04T22:55:29.453Z,38.00
2019-04-04T22:58:28.638Z,38.00
2019-04-04T23:01:16.895Z,38.00
2019-04-04T23:04:10.067Z,38.30
2019-04-04T23:07:05.361Z,38.60
2019-04-04T23:09:56.125Z,39.10
2019-04-04T23:12:48.604Z,39.50
2019-04-04T23:15:41.281Z,39.60
2019-04-04T23:18:33.941Z,39.80
2019-04-04T23:21:26.485Z,40.40
2019-04-04T23:24:18.813Z,40.60
2019-04-04T23:27:11.078Z,40.70
2019-04-04T23:30:03.397Z,40.60
2019-04-04T23:32:55.866Z,40.60
2019-04-04T23:35:47.983Z,41.00
2019-04-04T23:38:40.793Z,41.10
2019-04-04T23:41:33.257Z,41.20
2019-04-04T23:44:28.146Z,41.40
2019-04-04T23:47:20.527Z,41.70
2019-04-04T23:50:13.098Z,41.90
2019-04-04T23:53:05.499Z,42.00
2019-04-04T23:55:57.957Z,41.60
2019-04-04T23:58:51.817Z,42.00
